createdAt,value
2022-12-27T00:02:22.267Z,3.00
2022-12-27T00:04:50.066Z,2.90
2022-12-27T00:07:16.872Z,2.90
2022-12-27T00:09:43.648Z,2.90
2022-12-27T00:12:10.552Z,2.90
2022-12-27T00:14:37.305Z,3.00
2022-12-27T00:17:04.075Z,3.00
2022-12-27T00:19:30.779Z,3.00
2022-12-27T00:21:57.529Z,3.10
2022-12-27T00:24:24.288Z,3.00
2022-12-27T00:26:51.109Z,3.10
2022-12-27T00:29:17.813Z,3.10
2022-12-27T00:31:44.468Z,3.20
2022-12-27T00:34:11.181Z,3.20
2022-12-27T00:36:37.954Z,3.30
2022-12-27T00:39:05.420Z,3.30
2022-12-27T00:41:32.414Z,3.30
2022-12-27T00:43:59.075Z,3.30
2022-12-27T00:46:25.816Z,3.30
2022-12-27T00:48:52.631Z,3.20
2022-12-27T00:51:22.506Z,3.20
2022-12-27T00:53:51.036Z,3.20
2022-12-27T00:56:20.860Z,3.20
2022-12-27T00:58:48.230Z,3.30
2022-12-27T01:01:18.208Z,3.30
2022-12-27T01:03:45.960Z,3.40
2022-12-27T01:06:15.284Z,3.40
2022-12-27T01:08:43.060Z,3.40
2022-12-27T01:11:11.259Z,3.40
2022-12-27T01:13:38.799Z,3.40
2022-12-27T01:16:11.120Z,3.40
2022-12-27T01:18:38.257Z,3.30
2022-12-27T01:21:09.901Z,3.30
2022-12-27T01:23:37.645Z,3.20
2022-12-27T01:26:06.743Z,3.20
2022-12-27T01:28:34.515Z,3.20
2022-12-27T01:31:06.231Z,3.20
2022-12-27T01:33:32.959Z,3.20
2022-12-27T01:36:27.576Z,3.20
2022-12-27T01:38:54.831Z,3.30
2022-12-27T01:41:46.130Z,3.40
2022-12-27T01:44:43.396Z,3.40
2022-12-27T01:47:35.044Z,3.40
2022-12-27T01:50:29.768Z,3.40
2022-12-27T01:52:56.589Z,3.30
2022-12-27T01:55:37.504Z,3.30
2022-12-27T01:58:31.874Z,3.30
2022-12-27T02:00:59.106Z,3.20
2022-12-27T02:03:30.674Z,3.30
2022-12-27T02:05:58.874Z,3.30
2022-12-27T02:08:32.653Z,3.30
2022-12-27T02:11:00.533Z,3.30
2022-12-27T02:13:31.709Z,3.30
2022-12-27T02:15:58.434Z,3.30
2022-12-27T02:18:25.186Z,3.30
2022-12-27T02:21:25.298Z,3.30
2022-12-27T02:24:28.323Z,3.40
2022-12-27T02:27:07.714Z,3.40
2022-12-27T02:29:41.161Z,3.40
2022-12-27T02:32:22.500Z,3.40
2022-12-27T02:35:00.576Z,3.40
2022-12-27T02:37:31.677Z,3.40
2022-12-27T02:40:21.574Z,3.40
2022-12-27T02:43:08.394Z,3.40
2022-12-27T02:46:00.986Z,3.50
2022-12-27T02:48:46.570Z,3.50
2022-12-27T02:51:53.442Z,3.50
2022-12-27T02:54:39.582Z,3.50
2022-12-27T02:57:22.804Z,3.60
2022-12-27T03:00:26.730Z,3.60
2022-12-27T03:03:20.777Z,3.60
2022-12-27T03:06:29.077Z,3.60
2022-12-27T03:09:37.292Z,3.60
2022-12-27T03:12:45.389Z,3.70
2022-12-27T03:15:48.487Z,3.70
2022-12-27T03:18:28.040Z,3.70
2022-12-27T03:21:16.526Z,3.70
2022-12-27T03:24:05.001Z,3.70
2022-12-27T03:26:34.941Z,3.80
2022-12-27T03:29:22.337Z,3.80
2022-12-27T03:32:13.233Z,3.80
2022-12-27T03:34:44.158Z,3.80
2022-12-27T03:37:37.527Z,3.90
2022-12-27T03:40:34.449Z,3.90
2022-12-27T03:43:11.029Z,3.90
2022-12-27T03:46:15.575Z,3.90
2022-12-27T03:48:50.695Z,3.90
2022-12-27T03:51:21.044Z,3.90
2022-12-27T03:53:51.047Z,3.90
2022-12-27T03:56:18.499Z,3.90
2022-12-27T03:58:45.189Z,4.00
2022-12-27T04:01:12.108Z,4.00
2022-12-27T04:03:39.004Z,4.00
2022-12-27T04:06:05.841Z,4.10
2022-12-27T04:08:51.724Z,4.10
2022-12-27T04:11:37.322Z,4.10
2022-12-27T04:14:22.789Z,4.10
2022-12-27T04:17:07.956Z,4.10
2022-12-27T04:19:53.419Z,4.10
2022-12-27T04:22:38.751Z,4.20
2022-12-27T04:25:24.232Z,4.20
2022-12-27T04:28:09.684Z,4.20
2022-12-27T04:30:55.021Z,4.20
2022-12-27T04:33:40.503Z,4.20
2022-12-27T04:36:07.633Z,4.20
2022-12-27T04:38:34.300Z,4.20
2022-12-27T04:41:19.510Z,4.20
2022-12-27T04:44:05.279Z,4.20
2022-12-27T04:46:50.699Z,4.10
2022-12-27T04:49:44.876Z,4.10
2022-12-27T04:52:33.929Z,4.10
2022-12-27T04:55:17.122Z,4.10
2022-12-27T04:57:43.768Z,4.20
2022-12-27T05:00:30.386Z,4.20
2022-12-27T05:02:58.102Z,4.20
2022-12-27T05:05:25.273Z,4.30
2022-12-27T05:08:11.527Z,4.30
2022-12-27T05:10:57.771Z,4.30
2022-12-27T05:13:42.899Z,4.30
2022-12-27T05:16:09.579Z,4.30
2022-12-27T05:18:36.326Z,4.30
2022-12-27T05:21:05.325Z,4.30
2022-12-27T05:23:52.636Z,4.30
2022-12-27T05:26:23.950Z,4.30
2022-12-27T05:28:52.639Z,4.30
2022-12-27T05:31:20.383Z,4.30
2022-12-27T05:33:47.617Z,4.30
2022-12-27T05:36:14.489Z,4.40
2022-12-27T05:38:41.288Z,4.40
2022-12-27T05:41:07.989Z,4.40
2022-12-27T05:43:35.074Z,4.40
2022-12-27T05:46:10.996Z,4.40
2022-12-27T05:48:38.291Z,4.40
2022-12-27T05:51:14.228Z,4.40
2022-12-27T05:53:41.324Z,4.40
2022-12-27T05:56:09.203Z,4.40
2022-12-27T05:58:35.823Z,4.40
2022-12-27T06:01:09.424Z,4.40
2022-12-27T06:03:36.542Z,4.40
2022-12-27T06:06:04.769Z,4.40
2022-12-27T06:08:31.926Z,4.40
2022-12-27T06:11:16.492Z,4.40
2022-12-27T06:13:48.058Z,4.40
2022-12-27T06:16:14.695Z,4.30
2022-12-27T06:18:42.585Z,4.30
2022-12-27T06:21:18.765Z,4.30
2022-12-27T06:23:46.707Z,4.30
2022-12-27T06:26:19.585Z,4.30
2022-12-27T06:28:46.960Z,4.30
2022-12-27T06:31:13.616Z,4.30
2022-12-27T06:33:40.974Z,4.30
2022-12-27T06:36:13.601Z,4.30
2022-12-27T06:38:41.041Z,4.30
2022-12-27T06:41:10.813Z,4.40
2022-12-27T06:43:38.171Z,4.30
2022-12-27T06:46:11.237Z,4.30
2022-12-27T06:48:41.235Z,4.40
2022-12-27T06:51:10.469Z,4.40
2022-12-27T06:53:37.460Z,4.40
2022-12-27T06:56:05.795Z,4.40
2022-12-27T06:58:32.471Z,4.40
2022-12-27T07:01:06.248Z,4.40
2022-12-27T07:03:32.955Z,4.40
2022-12-27T07:06:03.686Z,4.40
2022-12-27T07:08:30.492Z,4.40
2022-12-27T07:11:02.051Z,4.40
2022-12-27T07:13:33.089Z,4.40
2022-12-27T07:15:59.760Z,4.40
2022-12-27T07:18:26.517Z,4.40
2022-12-27T07:20:53.899Z,4.40
2022-12-27T07:23:20.494Z,4.30
2022-12-27T07:25:47.066Z,4.30
2022-12-27T07:28:13.774Z,4.30
2022-12-27T07:30:41.708Z,4.30
2022-12-27T07:33:08.761Z,4.30
2022-12-27T07:35:36.838Z,4.30
2022-12-27T07:38:05.171Z,4.30
2022-12-27T07:40:31.923Z,4.30
2022-12-27T07:42:58.552Z,4.30
2022-12-27T07:45:25.152Z,4.30
2022-12-27T07:47:52.046Z,4.30
2022-12-27T07:50:18.873Z,4.30
2022-12-27T07:52:45.519Z,4.30
2022-12-27T07:55:12.128Z,4.30
2022-12-27T07:57:38.863Z,4.30
2022-12-27T08:00:06.131Z,4.30
2022-12-27T08:02:38.439Z,4.30
2022-12-27T08:05:05.831Z,4.30
2022-12-27T08:07:33.079Z,4.30
2022-12-27T08:09:59.876Z,4.30
2022-12-27T08:12:26.514Z,4.30
2022-12-27T08:14:53.320Z,4.30
2022-12-27T08:17:23.736Z,4.30
2022-12-27T08:19:52.210Z,4.30
2022-12-27T08:22:18.919Z,4.40
2022-12-27T08:24:45.588Z,4.40
2022-12-27T08:27:12.580Z,4.30
2022-12-27T08:29:39.246Z,4.30
2022-12-27T08:32:06.038Z,4.30
2022-12-27T08:34:32.703Z,4.30
2022-12-27T08:37:00.157Z,4.30
2022-12-27T08:39:27.839Z,4.40
2022-12-27T08:41:54.448Z,4.40
2022-12-27T08:44:21.312Z,4.40
2022-12-27T08:46:48.115Z,4.40
2022-12-27T08:49:14.751Z,4.30
2022-12-27T08:51:41.845Z,4.30
2022-12-27T08:54:09.177Z,4.40
2022-12-27T08:56:36.058Z,4.40
2022-12-27T08:59:03.189Z,4.40
2022-12-27T09:01:29.948Z,4.40
2022-12-27T09:03:56.700Z,4.40
2022-12-27T09:06:24.425Z,4.50
2022-12-27T09:08:52.155Z,4.50
2022-12-27T09:11:21.484Z,4.50
2022-12-27T09:13:48.238Z,4.60
2022-12-27T09:16:18.221Z,4.50
2022-12-27T09:18:48.663Z,4.50
2022-12-27T09:21:16.923Z,4.50
2022-12-27T09:23:44.440Z,4.50
2022-12-27T09:26:17.175Z,4.60
2022-12-27T09:28:44.242Z,4.60
2022-12-27T09:31:12.735Z,4.60
2022-12-27T09:33:39.885Z,4.60
2022-12-27T09:36:10.128Z,4.60
2022-12-27T09:38:37.748Z,4.60
2022-12-27T09:41:07.168Z,4.60
2022-12-27T09:43:39.792Z,4.60
2022-12-27T09:46:14.180Z,4.60
2022-12-27T09:48:41.094Z,4.60
2022-12-27T09:51:20.341Z,4.70
2022-12-27T09:54:10.542Z,4.70
2022-12-27T09:57:02.112Z,4.80
2022-12-27T09:59:38.347Z,4.80
2022-12-27T10:02:26.301Z,4.80
2022-12-27T10:05:28.485Z,4.80
2022-12-27T10:08:00.872Z,4.80
2022-12-27T10:11:05.859Z,4.90
2022-12-27T10:13:49.375Z,4.80
2022-12-27T10:16:34.653Z,4.90
2022-12-27T10:19:05.682Z,4.90
2022-12-27T10:21:37.243Z,4.90
2022-12-27T10:24:24.908Z,5.00
2022-12-27T10:26:55.029Z,5.00
2022-12-27T10:29:24.981Z,4.90
2022-12-27T10:31:52.583Z,4.90
2022-12-27T10:34:24.213Z,4.90
2022-12-27T10:36:52.513Z,4.80
2022-12-27T10:39:21.909Z,4.90
2022-12-27T10:42:17.884Z,4.90
2022-12-27T10:44:44.482Z,4.90
2022-12-27T10:47:11.632Z,4.90
2022-12-27T10:49:39.636Z,4.90
2022-12-27T10:52:22.507Z,4.90
2022-12-27T10:54:54.095Z,5.00
2022-12-27T10:57:35.811Z,5.00
2022-12-27T11:00:22.715Z,5.00
2022-12-27T11:02:54.400Z,5.00
2022-12-27T11:05:32.383Z,5.00
2022-12-27T11:08:01.187Z,5.00
2022-12-27T11:10:33.197Z,5.00
2022-12-27T11:13:05.151Z,5.00
2022-12-27T11:15:37.768Z,5.00
2022-12-27T11:18:11.448Z,5.00
2022-12-27T11:20:47.067Z,5.00
2022-12-27T11:23:17.354Z,5.10
2022-12-27T11:25:53.094Z,5.20
2022-12-27T11:28:42.070Z,5.30
2022-12-27T11:31:11.716Z,5.30
2022-12-27T11:33:50.081Z,5.30
2022-12-27T11:36:28.730Z,5.20
2022-12-27T11:38:55.588Z,5.30
2022-12-27T11:41:42.854Z,5.20
2022-12-27T11:44:12.356Z,5.30
2022-12-27T11:46:47.120Z,5.30
2022-12-27T11:49:30.519Z,5.30
2022-12-27T11:52:07.847Z,5.20
2022-12-27T11:55:03.640Z,5.30
2022-12-27T11:58:07.734Z,5.30
2022-12-27T12:01:05.658Z,5.30
2022-12-27T12:04:01.651Z,5.40
2022-12-27T12:06:46.424Z,5.40
2022-12-27T12:09:34.830Z,5.60
2022-12-27T12:12:01.404Z,5.60
2022-12-27T12:14:56.447Z,5.70
2022-12-27T12:17:51.369Z,5.70
2022-12-27T12:20:45.714Z,5.70
2022-12-27T12:23:49.943Z,5.70
2022-12-27T12:26:21.567Z,5.60
2022-12-27T12:29:01.047Z,5.60
2022-12-27T12:31:58.853Z,5.70
2022-12-27T12:34:59.100Z,5.70
2022-12-27T12:37:40.806Z,5.80
2022-12-27T12:40:32.833Z,5.90
2022-12-27T12:43:08.326Z,5.90
2022-12-27T12:45:46.035Z,5.90
2022-12-27T12:48:41.448Z,5.90
2022-12-27T12:51:08.305Z,5.90
2022-12-27T12:53:53.470Z,6.00
2022-12-27T12:56:43.533Z,6.00
2022-12-27T12:59:21.935Z,6.00
2022-12-27T13:02:01.078Z,5.90
2022-12-27T13:04:35.010Z,5.90
2022-12-27T13:07:16.786Z,5.90
2022-12-27T13:10:14.687Z,5.90
2022-12-27T13:13:04.197Z,5.90
2022-12-27T13:16:00.301Z,5.90
2022-12-27T13:18:39.204Z,5.90
2022-12-27T13:21:42.988Z,5.90
2022-12-27T13:24:38.674Z,5.90
2022-12-27T13:27:20.386Z,5.90
2022-12-27T13:30:11.858Z,5.90
2022-12-27T13:33:09.731Z,6.00
2022-12-27T13:36:17.016Z,6.00
2022-12-27T13:39:01.181Z,6.00
2022-12-27T13:41:57.795Z,6.10
2022-12-27T13:45:02.477Z,6.10
2022-12-27T13:47:54.366Z,6.10
2022-12-27T13:50:37.952Z,6.10
2022-12-27T13:53:24.489Z,6.10
2022-12-27T13:56:52.260Z,6.10
2022-12-27T13:59:18.243Z,6.20
2022-12-27T14:02:06.645Z,6.20
2022-12-27T14:04:59.851Z,6.20
2022-12-27T14:08:01.898Z,6.20
2022-12-27T14:10:53.929Z,6.20
2022-12-27T14:13:42.231Z,6.20
2022-12-27T14:16:46.412Z,6.10
2022-12-27T14:19:35.386Z,6.10
2022-12-27T14:22:26.846Z,6.00
2022-12-27T14:25:23.946Z,6.00
2022-12-27T14:28:12.301Z,6.00
2022-12-27T14:30:58.938Z,6.00
2022-12-27T14:33:44.125Z,5.90
2022-12-27T14:36:35.621Z,5.90
2022-12-27T14:39:25.825Z,5.80
2022-12-27T14:42:16.564Z,5.80
2022-12-27T14:45:09.101Z,5.80
2022-12-27T14:48:01.690Z,5.80
2022-12-27T14:50:47.219Z,5.80
2022-12-27T14:53:35.805Z,5.70
2022-12-27T14:56:27.925Z,5.70
2022-12-27T14:59:19.593Z,5.70
2022-12-27T15:01:52.405Z,5.60
2022-12-27T15:05:04.034Z,5.60
2022-12-27T15:07:37.118Z,5.50
2022-12-27T15:10:33.688Z,5.50
2022-12-27T15:13:47.654Z,5.50
2022-12-27T15:16:35.935Z,5.50
2022-12-27T15:19:32.184Z,5.60
2022-12-27T15:22:09.910Z,5.60
2022-12-27T15:24:39.594Z,5.60
2022-12-27T15:27:26.463Z,5.60
2022-12-27T15:30:21.928Z,5.70
2022-12-27T15:32:57.091Z,5.70
2022-12-27T15:35:55.109Z,5.70
2022-12-27T15:38:44.479Z,5.70
2022-12-27T15:41:27.017Z,5.80
2022-12-27T15:44:11.733Z,5.80
2022-12-27T15:46:47.444Z,5.90
2022-12-27T15:49:14.284Z,5.90
2022-12-27T15:52:12.318Z,5.90
2022-12-27T15:55:16.553Z,5.90
2022-12-27T15:57:51.803Z,5.90
2022-12-27T16:00:24.296Z,6.00
2022-12-27T16:02:54.736Z,6.00
2022-12-27T16:05:30.824Z,6.00
2022-12-27T16:08:00.445Z,6.00
2022-12-27T16:10:35.135Z,6.10
2022-12-27T16:13:41.384Z,6.10
2022-12-27T16:16:32.539Z,6.10
2022-12-27T16:18:59.233Z,6.00
2022-12-27T16:21:35.453Z,6.00
2022-12-27T16:24:10.907Z,6.00
2022-12-27T16:26:46.230Z,6.00
2022-12-27T16:29:15.846Z,6.00
2022-12-27T16:31:49.000Z,6.00
2022-12-27T16:34:29.346Z,6.00
2022-12-27T16:36:59.452Z,6.00
2022-12-27T16:40:10.249Z,6.10
2022-12-27T16:42:58.256Z,6.10
2022-12-27T16:45:30.614Z,6.10
2022-12-27T16:48:09.688Z,6.10
2022-12-27T16:50:45.519Z,6.10
2022-12-27T16:53:36.738Z,6.10
2022-12-27T16:56:18.887Z,6.10
2022-12-27T16:58:45.669Z,6.10
2022-12-27T17:01:18.546Z,6.10
2022-12-27T17:03:48.276Z,6.10
2022-12-27T17:06:31.857Z,6.00
2022-12-27T17:09:08.894Z,6.00
2022-12-27T17:11:56.052Z,6.00
2022-12-27T17:14:30.037Z,6.00
2022-12-27T17:17:10.400Z,6.00
2022-12-27T17:19:43.510Z,6.00
2022-12-27T17:22:17.845Z,6.00
2022-12-27T17:24:45.733Z,6.00
2022-12-27T17:27:43.333Z,6.00
2022-12-27T17:30:22.170Z,6.00
2022-12-27T17:33:20.417Z,6.00
2022-12-27T17:36:28.796Z,6.00
2022-12-27T17:39:25.039Z,6.10
2022-12-27T17:42:31.083Z,6.00
2022-12-27T17:45:09.609Z,6.10
2022-12-27T17:48:11.374Z,6.10
2022-12-27T17:50:42.330Z,6.10
2022-12-27T17:53:27.934Z,6.00
2022-12-27T17:56:28.541Z,6.00
2022-12-27T17:59:22.821Z,6.00
2022-12-27T18:01:52.190Z,6.00
2022-12-27T18:04:32.047Z,6.00
2022-12-27T18:07:01.332Z,6.00
2022-12-27T18:09:47.895Z,6.00
2022-12-27T18:12:20.521Z,6.00
2022-12-27T18:15:03.896Z,6.00
2022-12-27T18:17:39.663Z,5.90
2022-12-27T18:20:28.764Z,5.90
2022-12-27T18:23:01.601Z,5.90
2022-12-27T18:25:43.341Z,5.90
2022-12-27T18:28:15.824Z,5.90
2022-12-27T18:30:57.179Z,5.90
2022-12-27T18:33:47.839Z,5.80
2022-12-27T18:36:29.689Z,5.80
2022-12-27T18:39:03.964Z,5.80
2022-12-27T18:41:50.747Z,5.80
2022-12-27T18:44:26.780Z,5.70
2022-12-27T18:46:57.410Z,5.70
2022-12-27T18:49:26.425Z,5.70
2022-12-27T18:51:54.889Z,5.70
2022-12-27T18:54:35.097Z,5.70
2022-12-27T18:57:04.691Z,5.70
2022-12-27T18:59:34.345Z,5.70
2022-12-27T19:02:20.264Z,5.80
2022-12-27T19:05:14.937Z,5.70
2022-12-27T19:07:41.805Z,5.70
2022-12-27T19:10:18.430Z,5.70
2022-12-27T19:12:46.192Z,5.70
2022-12-27T19:15:28.703Z,5.70
2022-12-27T19:18:01.260Z,5.60
2022-12-27T19:20:31.654Z,5.60
2022-12-27T19:23:01.923Z,5.60
2022-12-27T19:25:31.288Z,5.60
2022-12-27T19:28:19.337Z,5.60
2022-12-27T19:31:24.860Z,5.60
2022-12-27T19:34:00.468Z,5.60
2022-12-27T19:36:48.164Z,5.50
2022-12-27T19:39:29.691Z,5.50
2022-12-27T19:42:00.979Z,5.40
2022-12-27T19:44:29.082Z,5.40
2022-12-27T19:46:56.123Z,5.40
2022-12-27T19:49:42.321Z,5.30
2022-12-27T19:52:18.014Z,5.30
2022-12-27T19:54:46.280Z,5.30
2022-12-27T19:57:13.259Z,5.30
2022-12-27T19:59:40.122Z,5.30
2022-12-27T20:02:07.438Z,5.30
2022-12-27T20:04:34.472Z,5.30
2022-12-27T20:07:01.622Z,5.30
2022-12-27T20:09:28.419Z,5.20
2022-12-27T20:11:55.322Z,5.20
2022-12-27T20:14:22.554Z,5.20
2022-12-27T20:16:49.740Z,5.20
2022-12-27T20:19:17.871Z,5.20
2022-12-27T20:21:44.905Z,5.20
2022-12-27T20:24:12.892Z,5.20
2022-12-27T20:26:40.401Z,5.10
2022-12-27T20:29:07.329Z,5.10
2022-12-27T20:31:37.562Z,5.10
2022-12-27T20:34:10.017Z,5.00
2022-12-27T20:36:36.990Z,5.00
2022-12-27T20:39:03.971Z,4.90
2022-12-27T20:41:30.865Z,4.90
2022-12-27T20:43:58.518Z,4.90
2022-12-27T20:46:25.779Z,4.80
2022-12-27T20:48:54.344Z,4.70
2022-12-27T20:51:27.625Z,4.70
2022-12-27T20:53:56.519Z,4.70
2022-12-27T20:56:24.143Z,4.70
2022-12-27T20:58:50.865Z,4.70
2022-12-27T21:01:20.622Z,4.60
2022-12-27T21:03:47.694Z,4.60
2022-12-27T21:06:17.477Z,4.50
2022-12-27T21:08:49.007Z,4.40
2022-12-27T21:11:22.866Z,4.40
2022-12-27T21:13:49.958Z,4.40
2022-12-27T21:16:19.703Z,4.40
2022-12-27T21:18:46.888Z,4.40
2022-12-27T21:21:18.987Z,4.30
2022-12-27T21:23:46.712Z,4.30
2022-12-27T21:26:28.218Z,4.30
2022-12-27T21:28:55.534Z,4.30
2022-12-27T21:31:22.727Z,4.20
2022-12-27T21:33:49.930Z,4.20
2022-12-27T21:36:22.239Z,4.20
2022-12-27T21:38:49.347Z,4.10
2022-12-27T21:41:18.113Z,4.10
2022-12-27T21:43:45.597Z,4.20
2022-12-27T21:46:19.562Z,4.20
2022-12-27T21:48:47.101Z,4.20
2022-12-27T21:51:16.903Z,4.20
2022-12-27T21:53:44.680Z,4.20
2022-12-27T21:56:13.347Z,4.20
2022-12-27T21:58:41.848Z,4.10
2022-12-27T22:01:15.585Z,4.20
2022-12-27T22:03:45.144Z,4.20
2022-12-27T22:06:13.568Z,4.10
2022-12-27T22:08:41.816Z,4.20
2022-12-27T22:11:09.110Z,4.10
2022-12-27T22:13:36.079Z,4.10
2022-12-27T22:16:05.408Z,4.10
2022-12-27T22:18:37.505Z,4.10
2022-12-27T22:21:06.254Z,4.00
2022-12-27T22:23:34.460Z,4.10
2022-12-27T22:26:01.538Z,4.10
2022-12-27T22:28:28.294Z,4.00
2022-12-27T22:30:55.161Z,4.10
2022-12-27T22:33:21.761Z,4.10
2022-12-27T22:35:48.390Z,4.10
2022-12-27T22:38:15.051Z,4.10
2022-12-27T22:40:46.228Z,4.10
2022-12-27T22:43:13.645Z,4.10
2022-12-27T22:45:42.220Z,4.10
2022-12-27T22:48:08.899Z,4.20
2022-12-27T22:50:37.735Z,4.20
2022-12-27T22:53:04.568Z,4.20
2022-12-27T22:55:31.218Z,4.30
2022-12-27T22:57:58.042Z,4.30
2022-12-27T23:00:24.636Z,4.30
2022-12-27T23:02:51.260Z,4.40
2022-12-27T23:05:18.023Z,4.40
2022-12-27T23:08:06.160Z,4.50
2022-12-27T23:10:31.296Z,4.50
2022-12-27T23:12:58.808Z,4.50
2022-12-27T23:15:25.618Z,4.50
2022-12-27T23:17:52.898Z,4.60
2022-12-27T23:20:19.768Z,4.50
2022-12-27T23:22:46.362Z,4.60
2022-12-27T23:25:13.023Z,4.60
2022-12-27T23:27:39.668Z,4.50
2022-12-27T23:30:06.812Z,4.50
2022-12-27T23:32:35.775Z,4.50
2022-12-27T23:35:02.440Z,4.50
2022-12-27T23:37:29.051Z,4.40
2022-12-27T23:39:55.705Z,4.40
2022-12-27T23:42:22.392Z,4.40
2022-12-27T23:44:49.019Z,4.40
2022-12-27T23:47:15.688Z,4.30
2022-12-27T23:49:42.275Z,4.30
2022-12-27T23:52:08.973Z,4.30
2022-12-27T23:54:35.627Z,4.30
2022-12-27T23:57:20.524Z,4.40
2022-12-27T23:59:49.289Z,4.40
